Time,TemperatureF,DewpointF,PressureIn,WindDirection,WindDirectionDegrees,WindSpeedMPH,WindSpeedGustMPH,Humidity,HourlyPrecipIn,Conditions,Clouds,dailyrainin,SoftwareType,DateUTC
2013-06-01 00:02:00,70.7,67.0,29.67,South,169,18.0,26.0,89,0.00,,,0.00,weatherlink.com 1.10,2013-06-01 05:02:00,
2013-06-01 00:17:00,68.9,66.0,29.68,SSE,159,9.0,24.0,90,0.00,,,0.00,weatherlink.com 1.10,2013-06-01 05:17:00,
2013-06-01 00:32:00,67.0,64.0,29.68,South,185,9.0,19.0,91,0.00,,,0.00,weatherlink.com 1.10,2013-06-01 05:32:00,
2013-06-01 00:47:00,66.3,64.0,29.67,SSW,199,9.0,18.0,91,0.00,,,0.00,weatherlink.com 1.10,2013-06-01 05:47:00,
2013-06-01 01:02:00,66.5,63.0,29.67,South,191,8.0,16.0,88,0.00,,,0.00,weatherlink.com 1.10,2013-06-01 06:02:00,
2013-06-01 01:17:00,66.3,63.0,29.69,SSW,205,8.0,11.0,89,0.00,,,0.00,weatherlink.com 1.10,2013-06-01 06:17:00,
2013-06-01 01:32:00,67.0,63.0,29.70,SSW,201,9.0,20.0,86,0.00,,,0.00,weatherlink.com 1.10,2013-06-01 06:32:00,
2013-06-01 01:47:00,67.2,63.0,29.69,SW,223,10.0,17.0,85,0.00,,,0.00,weatherlink.com 1.10,2013-06-01 06:47:00,
2013-06-01 02:03:00,68.3,63.0,29.70,SSW,203,11.0,19.0,82,0.00,,,0.00,weatherlink.com 1.10,2013-06-01 07:03:00,
2013-06-01 02:18:00,68.1,62.0,29.65,South,170,18.0,23.0,82,0.00,,,0.00,weatherlink.com 1.10,2013-06-01 07:18:00,
2013-06-01 02:33:00,67.3,62.0,29.66,South,178,9.0,19.0,84,0.00,,,0.00,weatherlink.com 1.10,2013-06-01 07:33:00,
2013-06-01 02:48:00,66.6,62.0,29.65,South,188,3.0,21.0,86,0.00,,,0.00,weatherlink.com 1.10,2013-06-01 07:48:00,
2013-06-01 03:03:00,66.3,63.0,29.69,SSW,197,8.0,13.0,88,0.00,,,0.00,weatherlink.com 1.10,2013-06-01 08:03:00,
2013-06-01 03:18:00,66.0,62.0,29.67,SSW,198,6.0,12.0,88,0.00,,,0.00,weatherlink.com 1.10,2013-06-01 08:18:00,
2013-06-01 03:33:00,65.8,63.0,29.68,SW,223,4.0,11.0,89,0.00,,,0.00,weatherlink.com 1.10,2013-06-01 08:33:00,
2013-06-01 03:48:00,65.6,62.0,29.68,SW,224,5.0,8.0,89,0.00,,,0.00,weatherlink.com 1.10,2013-06-01 08:48:00,
2013-06-01 04:03:00,65.5,63.0,29.67,SSW,198,2.0,8.0,90,0.00,,,0.00,weatherlink.com 1.10,2013-06-01 09:03:00,
2013-06-01 04:18:00,65.3,62.0,29.67,SSW,193,3.0,7.0,90,0.00,,,0.00,weatherlink.com 1.10,2013-06-01 09:18:00,
2013-06-01 04:33:00,65.0,62.0,29.68,South,190,2.0,6.0,91,0.00,,,0.00,weatherlink.com 1.10,2013-06-01 09:33:00,
2013-06-01 04:48:00,64.7,62.0,29.68,South,190,1.0,6.0,91,0.00,,,0.00,weatherlink.com 1.10,2013-06-01 09:48:00,
2013-06-01 05:03:00,64.2,62.0,29.70,South,188,5.0,6.0,92,0.00,,,0.00,weatherlink.com 1.10,2013-06-01 10:03:00,
2013-06-01 05:18:00,64.0,62.0,29.70,South,190,4.0,8.0,93,0.00,,,0.00,weatherlink.com 1.10,2013-06-01 10:18:00,
2013-06-01 05:33:00,63.7,62.0,29.69,South,187,3.0,7.0,93,0.00,,,0.00,weatherlink.com 1.10,2013-06-01 10:33:00,
2013-06-01 05:48:00,63.5,62.0,29.69,South,186,3.0,6.0,93,0.00,,,0.00,weatherlink.com 1.10,2013-06-01 10:48:00,
2013-06-01 06:03:00,63.6,62.0,29.69,South,186,3.0,5.0,93,0.00,,,0.00,weatherlink.com 1.10,2013-06-01 11:03:00,
2013-06-01 06:18:00,63.7,62.0,29.70,South,186,4.0,6.0,93,0.00,,,0.00,weatherlink.com 1.10,2013-06-01 11:18:00,
2013-06-01 06:33:00,64.2,62.0,29.70,South,178,3.0,7.0,92,0.00,,,0.00,weatherlink.com 1.10,2013-06-01 11:33:00,
2013-06-01 06:48:00,64.9,62.0,29.70,South,184,5.0,7.0,91,0.01,,,0.01,weatherlink.com 1.10,2013-06-01 11:48:00,
2013-06-01 07:03:00,65.2,63.0,29.71,South,180,6.0,10.0,91,0.01,,,0.01,weatherlink.com 1.10,2013-06-01 12:03:00,
2013-06-01 07:18:00,65.6,62.0,29.71,SSW,210,5.0,11.0,89,0.01,,,0.01,weatherlink.com 1.10,2013-06-01 12:18:00,
2013-06-01 07:33:00,66.0,62.0,29.72,SSW,209,9.0,13.0,88,0.01,,,0.01,weatherlink.com 1.10,2013-06-01 12:33:00,
2013-06-01 07:48:00,66.4,63.0,29.72,SW,222,8.0,11.0,87,0.00,,,0.01,weatherlink.com 1.10,2013-06-01 12:48:00,
2013-06-01 08:03:00,67.3,63.0,29.72,SSW,210,7.0,12.0,86,0.00,,,0.01,weatherlink.com 1.10,2013-06-01 13:03:00,
2013-06-01 08:18:00,67.9,63.0,29.72,SSW,206,9.0,15.0,85,0.00,,,0.01,weatherlink.com 1.10,2013-06-01 13:18:00,
2013-06-01 08:33:00,68.1,63.0,29.73,South,186,10.0,14.0,83,0.00,,,0.01,weatherlink.com 1.10,2013-06-01 13:33:00,
2013-06-01 08:48:00,68.6,64.0,29.73,SSW,206,8.0,13.0,84,0.00,,,0.01,weatherlink.com 1.10,2013-06-01 13:48:00,
2013-06-01 09:03:00,68.3,63.0,29.72,South,171,10.0,15.0,84,0.00,,,0.01,weatherlink.com 1.10,2013-06-01 14:03:00,
2013-06-01 09:18:00,68.9,64.0,29.72,SSW,210,10.0,16.0,83,0.00,,,0.01,weatherlink.com 1.10,2013-06-01 14:18:00,
2013-06-01 09:33:00,69.3,64.0,29.72,SSW,192,8.0,19.0,82,0.00,,,0.01,weatherlink.com 1.10,2013-06-01 14:33:00,
2013-06-01 09:48:00,69.1,64.0,29.72,South,189,8.0,19.0,84,0.00,,,0.01,weatherlink.com 1.10,2013-06-01 14:48:00,
2013-06-01 10:03:00,69.3,64.0,29.72,SSW,200,7.0,19.0,84,0.00,,,0.01,weatherlink.com 1.10,2013-06-01 15:03:00,
2013-06-01 10:18:00,69.8,64.0,29.72,SSW,192,8.0,22.0,82,0.00,,,0.01,weatherlink.com 1.10,2013-06-01 15:18:00,
2013-06-01 10:33:00,69.8,64.0,29.72,South,182,8.0,23.0,81,0.00,,,0.01,weatherlink.com 1.10,2013-06-01 15:33:00,
2013-06-01 10:48:00,69.5,65.0,29.72,South,178,9.0,20.0,84,0.00,,,0.01,weatherlink.com 1.10,2013-06-01 15:48:00,
2013-06-01 11:03:00,69.7,65.0,29.72,SSW,198,10.0,23.0,84,0.01,,,0.02,weatherlink.com 1.10,2013-06-01 16:03:00,
2013-06-01 11:18:00,70.5,65.0,29.72,SSW,200,16.0,20.0,82,0.01,,,0.02,weatherlink.com 1.10,2013-06-01 16:18:00,
2013-06-01 11:33:00,70.6,65.0,29.71,South,187,9.0,21.0,82,0.01,,,0.02,weatherlink.com 1.10,2013-06-01 16:33:00,
2013-06-01 11:48:00,72.1,66.0,29.71,SSW,209,10.0,19.0,80,0.01,,,0.02,weatherlink.com 1.10,2013-06-01 16:48:00,
2013-06-01 12:03:00,72.6,66.0,29.70,SSW,192,9.0,21.0,80,0.00,,,0.02,weatherlink.com 1.10,2013-06-01 17:03:00,
2013-06-01 12:18:00,72.7,66.0,29.70,SSW,209,16.0,17.0,80,0.00,,,0.02,weatherlink.com 1.10,2013-06-01 17:18:00,
2013-06-01 12:33:00,72.7,66.0,29.69,SSW,205,12.0,18.0,78,0.00,,,0.02,weatherlink.com 1.10,2013-06-01 17:33:00,
2013-06-01 12:48:00,72.5,66.0,29.70,SW,230,11.0,18.0,80,0.00,,,0.02,weatherlink.com 1.10,2013-06-01 17:48:00,
2013-06-01 13:03:00,72.5,66.0,29.70,South,184,7.0,16.0,81,0.00,,,0.02,weatherlink.com 1.10,2013-06-01 18:03:00,
2013-06-01 13:18:00,71.9,66.0,29.70,South,179,5.0,19.0,82,0.00,,,0.02,weatherlink.com 1.10,2013-06-01 18:18:00,
2013-06-01 13:33:00,72.2,66.0,29.70,South,189,7.0,15.0,82,0.00,,,0.02,weatherlink.com 1.10,2013-06-01 18:33:00,
2013-06-01 13:48:00,72.8,67.0,29.69,South,185,8.0,13.0,81,0.00,,,0.02,weatherlink.com 1.10,2013-06-01 18:48:00,
2013-06-01 14:03:00,72.6,67.0,29.69,SSW,207,8.0,14.0,81,0.00,,,0.02,weatherlink.com 1.10,2013-06-01 19:03:00,
2013-06-01 14:18:00,73.2,67.0,29.68,SSW,210,12.0,15.0,81,0.00,,,0.02,weatherlink.com 1.10,2013-06-01 19:18:00,
2013-06-01 14:33:00,73.2,67.0,29.68,South,188,6.0,14.0,80,0.00,,,0.02,weatherlink.com 1.10,2013-06-01 19:33:00,
2013-06-01 14:48:00,72.9,67.0,29.67,SSW,206,6.0,13.0,81,0.00,,,0.02,weatherlink.com 1.10,2013-06-01 19:48:00,
2013-06-01 15:03:00,72.3,67.0,29.66,SSW,196,5.0,13.0,83,0.01,,,0.03,weatherlink.com 1.10,2013-06-01 20:03:00,
2013-06-01 15:18:00,69.9,67.0,29.67,SSW,198,5.0,18.0,89,0.01,,,0.03,weatherlink.com 1.10,2013-06-01 20:18:00,
2013-06-01 15:33:00,69.5,68.0,29.66,South,181,3.0,11.0,93,0.01,,,0.03,weatherlink.com 1.10,2013-06-01 20:33:00,
2013-06-01 15:48:00,69.7,67.0,29.66,SSW,194,8.0,15.0,91,0.01,,,0.03,weatherlink.com 1.10,2013-06-01 20:48:00,
2013-06-01 16:03:00,68.3,66.0,29.66,South,188,5.0,19.0,92,0.00,,,0.03,weatherlink.com 1.10,2013-06-01 21:03:00,
2013-06-01 16:18:00,67.3,66.0,29.66,South,189,7.0,15.0,96,0.00,,,0.03,weatherlink.com 1.10,2013-06-01 21:18:00,
2013-06-01 16:34:00,69.2,68.0,29.65,SSW,211,9.0,20.0,94,0.00,,,0.03,weatherlink.com 1.10,2013-06-01 21:34:00,
2013-06-01 16:48:00,70.1,67.0,29.65,SSW,192,12.0,24.0,89,0.00,,,0.03,weatherlink.com 1.10,2013-06-01 21:48:00,
2013-06-01 17:04:00,70.6,67.0,29.65,SW,236,10.0,19.0,88,0.00,,,0.03,weatherlink.com 1.10,2013-06-01 22:04:00,
2013-06-01 17:18:00,71.0,67.0,29.65,SSW,213,9.0,20.0,86,0.00,,,0.03,weatherlink.com 1.10,2013-06-01 22:18:00,
2013-06-01 17:33:00,71.9,67.0,29.64,SSW,203,9.0,21.0,83,0.00,,,0.03,weatherlink.com 1.10,2013-06-01 22:33:00,
2013-06-01 17:48:00,72.0,66.0,29.64,SSW,205,10.0,18.0,82,0.01,,,0.04,weatherlink.com 1.10,2013-06-01 22:48:00,
2013-06-01 18:03:00,72.5,67.0,29.64,South,176,13.0,15.0,82,0.01,,,0.04,weatherlink.com 1.10,2013-06-01 23:03:00,
2013-06-01 18:18:00,71.6,66.0,29.64,SSW,209,8.0,14.0,82,0.01,,,0.04,weatherlink.com 1.10,2013-06-01 23:18:00,
2013-06-01 18:33:00,71.0,66.0,29.64,SSW,203,7.0,16.0,83,0.01,,,0.04,weatherlink.com 1.10,2013-06-01 23:33:00,
2013-06-01 18:48:00,70.4,66.0,29.64,SSW,203,4.0,14.0,86,0.00,,,0.04,weatherlink.com 1.10,2013-06-01 23:48:00,
2013-06-01 19:03:00,65.6,61.0,29.65,SSW,202,7.0,17.0,85,0.00,,,0.04,weatherlink.com 1.10,2013-06-02 00:03:00,
2013-06-01 19:19:00,65.3,61.0,29.65,SSW,204,6.0,11.0,87,0.00,,,0.04,weatherlink.com 1.10,2013-06-02 00:19:00,
2013-06-01 19:33:00,64.7,61.0,29.66,SSW,199,4.0,7.0,88,0.00,,,0.04,weatherlink.com 1.10,2013-06-02 00:33:00,
2013-06-01 19:49:00,64.3,60.0,29.66,SSW,197,8.0,12.0,87,0.00,,,0.04,weatherlink.com 1.10,2013-06-02 00:49:00,
2013-06-01 20:04:00,63.2,60.0,29.65,SSW,194,3.0,11.0,88,0.00,,,0.04,weatherlink.com 1.10,2013-06-02 01:04:00,
2013-06-01 20:19:00,62.8,60.0,29.65,South,169,6.0,10.0,91,0.00,,,0.04,weatherlink.com 1.10,2013-06-02 01:19:00,
2013-06-01 20:34:00,62.6,61.0,29.65,South,172,4.0,9.0,93,0.00,,,0.04,weatherlink.com 1.10,2013-06-02 01:34:00,
2013-06-01 20:49:00,62.5,61.0,29.65,SSW,196,2.0,8.0,94,0.00,,,0.04,weatherlink.com 1.10,2013-06-02 01:49:00,
2013-06-01 21:04:00,62.3,61.0,29.67,SSW,210,5.0,10.0,95,0.00,,,0.04,weatherlink.com 1.10,2013-06-02 02:04:00,
2013-06-01 21:19:00,62.2,61.0,29.67,SSW,202,4.0,11.0,95,0.00,,,0.04,weatherlink.com 1.10,2013-06-02 02:19:00,
2013-06-01 21:34:00,62.1,61.0,29.67,SSW,197,5.0,10.0,95,0.00,,,0.04,weatherlink.com 1.10,2013-06-02 02:34:00,
2013-06-01 21:49:00,62.2,61.0,29.68,SSW,204,5.0,8.0,96,0.00,,,0.04,weatherlink.com 1.10,2013-06-02 02:49:00,
2013-06-01 22:04:00,62.3,61.0,29.68,SSW,211,5.0,7.0,96,0.00,,,0.04,weatherlink.com 1.10,2013-06-02 03:04:00,
2013-06-01 22:19:00,62.7,62.0,29.68,SW,217,7.0,9.0,96,0.00,,,0.04,weatherlink.com 1.10,2013-06-02 03:19:00,
2013-06-01 22:34:00,62.8,61.0,29.68,SW,228,5.0,8.0,95,0.00,,,0.04,weatherlink.com 1.10,2013-06-02 03:34:00,
2013-06-01 22:49:00,62.8,61.0,29.68,SSW,207,6.0,8.0,95,0.00,,,0.04,weatherlink.com 1.10,2013-06-02 03:49:00,
2013-06-01 23:04:00,62.7,61.0,29.68,SW,227,4.0,6.0,95,0.01,,,0.05,weatherlink.com 1.10,2013-06-02 04:04:00,
2013-06-01 23:20:00,62.4,61.0,29.69,SW,221,4.0,6.0,95,0.01,,,0.05,weatherlink.com 1.10,2013-06-02 04:20:00,
2013-06-01 23:34:00,62.3,61.0,29.70,SW,219,6.0,7.0,95,0.01,,,0.05,weatherlink.com 1.10,2013-06-02 04:34:00,
2013-06-01 23:49:00,62.9,61.0,29.70,SSW,211,3.0,7.0,93,0.01,,,0.05,weatherlink.com 1.10,2013-06-02 04:49:00,